createdAt,value
2022-08-29T00:01:06.643Z,67.73
2022-08-29T00:03:40.771Z,68.17
2022-08-29T00:06:12.897Z,69.85
2022-08-29T00:08:46.601Z,71.95
2022-08-29T00:11:18.644Z,71.70
2022-08-29T00:13:51.332Z,74.20
2022-08-29T00:16:22.986Z,71.63
2022-08-29T00:18:54.565Z,69.27
2022-08-29T00:21:26.505Z,70.13
2022-08-29T00:23:58.694Z,73.60
2022-08-29T00:26:30.319Z,70.60
2022-08-29T00:29:03.258Z,74.30
2022-08-29T00:31:34.945Z,66.17
2022-08-29T00:34:06.565Z,72.37
2022-08-29T00:36:38.232Z,72.37
2022-08-29T00:39:09.834Z,72.13
2022-08-29T00:41:41.520Z,70.20
2022-08-29T00:44:13.180Z,73.60
2022-08-29T00:46:52.865Z,67.10
2022-08-29T00:49:51.280Z,67.73
2022-08-29T00:52:31.603Z,70.10
2022-08-29T00:55:12.212Z,73.03
2022-08-29T00:57:46.558Z,66.70
2022-08-29T01:00:19.177Z,67.72
2022-08-29T01:02:51.425Z,68.50
2022-08-29T01:05:26.160Z,67.70
2022-08-29T01:07:58.879Z,68.90
2022-08-29T01:10:49.629Z,65.60
2022-08-29T01:13:29.142Z,70.80
2022-08-29T01:16:06.795Z,67.03
2022-08-29T01:18:40.660Z,72.17
2022-08-29T01:21:35.242Z,70.85
2022-08-29T01:24:15.269Z,67.80
2022-08-29T01:26:47.942Z,70.87
2022-08-29T01:29:19.876Z,69.43
2022-08-29T01:31:57.056Z,68.23
2022-08-29T01:34:30.172Z,68.57
2022-08-29T01:37:05.549Z,67.07
2022-08-29T01:39:41.649Z,67.87
2022-08-29T01:42:20.522Z,64.87
2022-08-29T01:44:57.776Z,65.67
2022-08-29T01:47:34.928Z,69.80
2022-08-29T01:50:12.888Z,67.90
2022-08-29T01:52:48.000Z,66.97
2022-08-29T01:55:19.682Z,68.33
2022-08-29T01:57:51.256Z,67.23
2022-08-29T02:00:27.529Z,66.57
2022-08-29T02:03:01.194Z,66.73
2022-08-29T02:05:32.869Z,68.38
2022-08-29T02:08:04.680Z,66.67
2022-08-29T02:10:36.802Z,69.17
2022-08-29T02:13:08.521Z,65.90
2022-08-29T02:15:40.151Z,69.33
2022-08-29T02:18:11.758Z,70.47
2022-08-29T02:20:43.498Z,67.20
2022-08-29T02:23:30.181Z,65.73
2022-08-29T02:26:03.656Z,66.97
2022-08-29T02:28:37.577Z,63.47
2022-08-29T02:31:09.878Z,68.07
2022-08-29T02:33:41.546Z,67.27
2022-08-29T02:36:14.217Z,67.20
2022-08-29T02:38:47.209Z,67.97
2022-08-29T02:41:19.276Z,65.77
2022-08-29T02:43:50.886Z,69.23
2022-08-29T02:46:22.959Z,73.13
2022-08-29T02:49:00.942Z,69.80
2022-08-29T02:51:34.174Z,67.37
2022-08-29T02:54:05.834Z,64.33
2022-08-29T02:56:38.040Z,68.80
2022-08-29T02:59:09.653Z,68.03
2022-08-29T03:01:41.313Z,63.73
2022-08-29T03:04:12.942Z,66.10
2022-08-29T03:06:44.525Z,61.43
2022-08-29T03:09:16.205Z,65.77
2022-08-29T03:11:47.836Z,68.77
2022-08-29T03:14:19.418Z,63.27
2022-08-29T03:16:51.852Z,67.90
2022-08-29T03:19:23.433Z,65.43
2022-08-29T03:21:55.477Z,67.67
2022-08-29T03:24:28.133Z,69.00
2022-08-29T03:26:59.726Z,68.00
2022-08-29T03:29:31.289Z,68.53
2022-08-29T03:32:03.190Z,68.17
2022-08-29T03:34:34.824Z,72.10
2022-08-29T03:37:06.485Z,74.23
2022-08-29T03:39:40.957Z,69.80
2022-08-29T03:42:12.754Z,70.93
2022-08-29T03:44:44.364Z,75.37
2022-08-29T03:47:16.117Z,73.33
2022-08-29T03:49:47.738Z,70.47
2022-08-29T03:52:19.358Z,76.80
2022-08-29T03:54:51.000Z,74.23
2022-08-29T03:57:22.570Z,77.77
2022-08-29T03:59:54.366Z,73.50
2022-08-29T04:02:26.132Z,71.20
2022-08-29T04:05:10.007Z,74.37
2022-08-29T04:07:54.197Z,77.03
2022-08-29T04:10:33.127Z,74.10
2022-08-29T04:13:07.005Z,68.97
2022-08-29T04:15:42.992Z,70.68
2022-08-29T04:18:15.672Z,71.70
2022-08-29T04:21:01.945Z,73.07
2022-08-29T04:23:36.194Z,70.83
2022-08-29T04:26:35.857Z,72.97
2022-08-29T04:29:10.710Z,70.17
2022-08-29T04:31:43.594Z,70.03
2022-08-29T04:34:15.349Z,74.37
2022-08-29T04:36:47.295Z,76.13
2022-08-29T04:39:19.166Z,74.27
2022-08-29T04:41:50.818Z,68.77
2022-08-29T04:44:22.565Z,70.83
2022-08-29T04:46:54.220Z,75.70
2022-08-29T04:49:25.941Z,78.00
2022-08-29T04:51:57.757Z,72.97
2022-08-29T04:54:29.385Z,73.40
2022-08-29T04:57:03.300Z,74.63
2022-08-29T04:59:37.743Z,74.10
2022-08-29T05:02:09.533Z,73.00
2022-08-29T05:04:41.142Z,73.17
2022-08-29T05:07:12.868Z,74.50
2022-08-29T05:09:44.482Z,84.93
2022-08-29T05:12:16.697Z,73.23
2022-08-29T05:14:48.281Z,75.97
2022-08-29T05:17:19.909Z,75.63
2022-08-29T05:19:51.932Z,73.53
2022-08-29T05:22:23.702Z,75.10
2022-08-29T05:24:57.008Z,79.47
2022-08-29T05:27:28.605Z,80.00
2022-08-29T05:30:01.155Z,73.10
2022-08-29T05:32:32.820Z,85.93
2022-08-29T05:35:04.688Z,76.40
2022-08-29T05:37:36.578Z,79.87
2022-08-29T05:40:09.753Z,82.70
2022-08-29T05:42:41.902Z,87.10
2022-08-29T05:45:13.557Z,85.30
2022-08-29T05:47:45.660Z,86.57
2022-08-29T05:50:18.097Z,92.00
2022-08-29T05:52:49.676Z,91.07
2022-08-29T05:55:21.332Z,89.53
2022-08-29T05:57:54.506Z,95.30
2022-08-29T06:00:26.101Z,95.17
2022-08-29T06:02:57.803Z,94.73
2022-08-29T06:05:29.497Z,100.57
2022-08-29T06:08:01.486Z,101.10
2022-08-29T06:10:33.559Z,100.40
2022-08-29T06:13:05.138Z,100.50
2022-08-29T06:15:36.825Z,105.33
2022-08-29T06:18:08.555Z,103.90
2022-08-29T06:20:40.752Z,105.70
2022-08-29T06:23:12.352Z,108.13
2022-08-29T06:25:43.945Z,110.67
2022-08-29T06:28:23.756Z,107.30
2022-08-29T06:30:55.835Z,108.90
2022-08-29T06:33:27.512Z,116.87
2022-08-29T06:35:59.082Z,113.33
2022-08-29T06:38:30.799Z,117.43
2022-08-29T06:41:12.154Z,116.57
2022-08-29T06:43:43.897Z,118.17
2022-08-29T06:46:33.866Z,117.57
2022-08-29T06:49:08.425Z,123.20
2022-08-29T06:51:42.433Z,120.63
2022-08-29T06:54:14.151Z,120.38
2022-08-29T06:56:46.197Z,118.10
2022-08-29T06:59:18.974Z,126.17
2022-08-29T07:01:50.758Z,122.13
2022-08-29T07:04:22.516Z,125.60
2022-08-29T07:06:55.154Z,125.13
2022-08-29T07:09:26.744Z,131.10
2022-08-29T07:11:58.377Z,127.97
2022-08-29T07:14:29.981Z,127.93
2022-08-29T07:17:01.642Z,126.37
2022-08-29T07:19:33.224Z,127.80
2022-08-29T07:22:05.070Z,132.03
2022-08-29T07:24:39.609Z,123.57
2022-08-29T07:27:12.048Z,129.33
2022-08-29T07:29:45.643Z,127.17
2022-08-29T07:32:25.655Z,122.37
2022-08-29T07:34:57.549Z,127.03
2022-08-29T07:37:29.164Z,131.17
2022-08-29T07:40:00.784Z,129.97
2022-08-29T07:42:37.995Z,132.60
2022-08-29T07:45:11.426Z,125.90
2022-08-29T07:47:43.063Z,132.32
2022-08-29T07:50:14.984Z,128.30
2022-08-29T07:52:48.518Z,120.83
2022-08-29T07:55:21.958Z,129.88
2022-08-29T07:57:53.829Z,127.57
2022-08-29T08:00:25.500Z,126.00
2022-08-29T08:02:57.428Z,126.97
2022-08-29T08:05:29.094Z,125.43
2022-08-29T08:08:05.125Z,131.43
2022-08-29T08:10:40.846Z,124.73
2022-08-29T08:13:12.484Z,128.77
2022-08-29T08:15:44.112Z,127.17
2022-08-29T08:18:16.636Z,130.37
2022-08-29T08:20:48.521Z,133.50
2022-08-29T08:23:20.400Z,127.67
2022-08-29T08:25:52.273Z,129.30
2022-08-29T08:28:23.953Z,133.17
2022-08-29T08:30:55.666Z,131.23
2022-08-29T08:33:27.491Z,135.27
2022-08-29T08:36:01.325Z,132.55
2022-08-29T08:38:32.969Z,138.23
2022-08-29T08:41:13.483Z,134.40
2022-08-29T08:43:54.072Z,134.50
2022-08-29T08:46:37.175Z,134.40
2022-08-29T08:49:33.897Z,136.57
2022-08-29T08:52:12.347Z,136.93
2022-08-29T08:54:53.410Z,138.00
2022-08-29T08:57:32.266Z,138.00
2022-08-29T09:00:06.397Z,139.70
2022-08-29T09:03:03.615Z,143.43
2022-08-29T09:06:20.602Z,138.33
2022-08-29T09:09:22.836Z,140.23
2022-08-29T09:12:16.315Z,141.40
2022-08-29T09:15:04.222Z,138.10
2022-08-29T09:17:48.638Z,140.03
2022-08-29T09:20:28.668Z,141.27
2022-08-29T09:23:30.621Z,138.02
2022-08-29T09:26:02.484Z,136.80
2022-08-29T09:28:35.450Z,138.32
2022-08-29T09:31:29.768Z,142.00
2022-08-29T09:34:12.072Z,140.60
2022-08-29T09:36:46.036Z,145.70
2022-08-29T09:39:29.766Z,142.40
2022-08-29T09:42:13.696Z,144.90
2022-08-29T09:44:54.672Z,139.40
2022-08-29T09:47:31.950Z,138.43
2022-08-29T09:50:12.650Z,143.68
2022-08-29T09:53:24.628Z,135.40
2022-08-29T09:56:10.405Z,138.80
2022-08-29T09:58:42.901Z,138.63
2022-08-29T10:01:25.629Z,136.83
2022-08-29T10:04:03.493Z,138.03
2022-08-29T10:06:45.105Z,135.27
2022-08-29T10:09:28.043Z,139.52
2022-08-29T10:12:14.255Z,141.18
2022-08-29T10:14:54.436Z,143.03
2022-08-29T10:17:57.181Z,141.85
2022-08-29T10:20:44.284Z,138.10
2022-08-29T10:23:59.733Z,140.90
2022-08-29T10:27:10.616Z,137.80
2022-08-29T10:30:08.046Z,146.48
2022-08-29T10:33:30.106Z,148.55
2022-08-29T10:36:13.062Z,136.45
2022-08-29T10:39:03.079Z,145.25
2022-08-29T10:41:40.380Z,137.50
2022-08-29T10:44:52.075Z,137.77
2022-08-29T10:47:36.643Z,133.52
2022-08-29T10:50:43.160Z,142.50
2022-08-29T10:53:31.728Z,140.60
2022-08-29T10:56:30.371Z,136.55
2022-08-29T10:59:29.352Z,139.23
2022-08-29T11:02:08.618Z,138.60
2022-08-29T11:04:56.662Z,133.68
2022-08-29T11:07:46.958Z,136.73
2022-08-29T11:10:24.859Z,131.00
2022-08-29T11:12:58.359Z,132.80
2022-08-29T11:15:52.603Z,125.80
2022-08-29T11:18:24.287Z,131.10
2022-08-29T11:21:12.865Z,133.47
2022-08-29T11:23:48.510Z,128.53
2022-08-29T11:26:22.936Z,135.87
2022-08-29T11:29:39.094Z,128.05
2022-08-29T11:32:33.578Z,129.20
2022-08-29T11:35:20.617Z,129.10
2022-08-29T11:38:18.848Z,131.03
2022-08-29T11:44:03.285Z,128.73
2022-08-29T11:46:42.943Z,128.50
2022-08-29T11:49:41.501Z,123.17
2022-08-29T11:52:12.995Z,126.00
2022-08-29T11:54:52.134Z,122.28
2022-08-29T11:57:31.751Z,121.03
2022-08-29T12:00:38.992Z,122.30
2022-08-29T12:06:14.521Z,121.43
2022-08-29T12:12:12.880Z,116.57
2022-08-29T12:14:48.247Z,119.63
2022-08-29T12:17:19.769Z,111.53
2022-08-29T12:20:41.358Z,117.13
2022-08-29T12:23:12.858Z,118.30
2022-08-29T12:28:48.676Z,115.50
2022-08-29T12:31:30.748Z,112.67
2022-08-29T12:34:17.217Z,113.53
2022-08-29T12:37:16.786Z,118.20
2022-08-29T12:40:06.943Z,114.80
2022-08-29T12:42:56.653Z,110.37
2022-08-29T12:45:30.322Z,111.37
2022-08-29T12:48:12.958Z,110.40
2022-08-29T12:50:48.210Z,107.70
2022-08-29T12:53:25.486Z,107.40
2022-08-29T12:56:01.195Z,110.30
2022-08-29T12:58:48.018Z,104.87
2022-08-29T13:01:28.368Z,112.00
2022-08-29T13:04:10.627Z,111.63
2022-08-29T13:07:04.730Z,110.63
2022-08-29T13:09:51.867Z,107.50
2022-08-29T13:12:27.193Z,106.70
2022-08-29T13:15:08.604Z,109.00
2022-08-29T13:17:42.541Z,109.73
2022-08-29T13:20:42.836Z,106.55
2022-08-29T13:23:31.766Z,112.37
2022-08-29T13:26:20.542Z,111.17
2022-08-29T13:32:19.467Z,109.93
2022-08-29T13:35:21.478Z,114.33
2022-08-29T13:38:26.538Z,109.37
2022-08-29T13:40:58.783Z,110.23
2022-08-29T13:43:43.102Z,106.53
2022-08-29T13:49:03.639Z,109.70
2022-08-29T13:51:35.338Z,111.28
2022-08-29T13:54:06.972Z,113.60
2022-08-29T13:56:38.731Z,108.73
2022-08-29T13:59:11.881Z,106.57
2022-08-29T14:04:38.957Z,106.30
2022-08-29T14:07:25.278Z,110.93
2022-08-29T14:09:57.535Z,107.43
2022-08-29T14:12:32.927Z,108.63
2022-08-29T14:15:09.854Z,108.83
2022-08-29T14:17:41.870Z,113.57
2022-08-29T14:20:15.314Z,107.07
2022-08-29T14:22:48.047Z,110.95
2022-08-29T14:25:21.485Z,112.70
2022-08-29T14:27:56.382Z,107.37
2022-08-29T14:30:28.113Z,109.27
2022-08-29T14:33:02.602Z,106.60
2022-08-29T14:35:34.753Z,108.10
2022-08-29T14:38:11.226Z,104.00
2022-08-29T14:40:43.835Z,107.23
2022-08-29T14:43:16.744Z,101.60
2022-08-29T14:45:48.426Z,111.70
2022-08-29T14:48:20.141Z,104.60
2022-08-29T14:50:51.745Z,104.73
2022-08-29T14:53:23.669Z,105.07
2022-08-29T14:55:56.294Z,103.03
2022-08-29T14:58:27.891Z,107.07
2022-08-29T15:01:00.166Z,106.60
2022-08-29T15:03:34.436Z,100.63
2022-08-29T15:06:06.631Z,105.93
2022-08-29T15:08:38.225Z,109.93
2022-08-29T15:11:13.197Z,103.23
2022-08-29T15:13:44.895Z,102.73
2022-08-29T15:16:16.592Z,106.57
2022-08-29T15:21:42.972Z,107.10
2022-08-29T15:24:14.622Z,102.87
2022-08-29T15:26:46.393Z,104.57
2022-08-29T15:29:18.500Z,107.13
2022-08-29T15:31:51.851Z,99.43
2022-08-29T15:34:25.558Z,105.43
2022-08-29T15:36:58.634Z,107.38
2022-08-29T15:39:33.080Z,105.93
2022-08-29T15:42:08.777Z,105.60
2022-08-29T15:44:40.744Z,103.20
2022-08-29T15:47:12.524Z,109.00
2022-08-29T15:49:49.333Z,105.30
2022-08-29T15:52:21.269Z,103.67
2022-08-29T15:54:53.057Z,105.13
2022-08-29T15:57:25.522Z,102.83
2022-08-29T15:59:58.825Z,100.20
2022-08-29T16:02:30.851Z,101.32
2022-08-29T16:05:02.703Z,102.40
2022-08-29T16:07:34.358Z,107.00
2022-08-29T16:10:10.756Z,102.77
2022-08-29T16:12:43.200Z,105.97
2022-08-29T16:15:14.799Z,107.07
2022-08-29T16:17:46.602Z,102.60
2022-08-29T16:20:18.815Z,102.67
2022-08-29T16:22:50.608Z,102.23
2022-08-29T16:25:24.157Z,102.63
2022-08-29T16:27:57.160Z,100.40
2022-08-29T16:30:29.453Z,104.53
2022-08-29T16:33:04.021Z,99.00
2022-08-29T16:35:35.632Z,102.53
2022-08-29T16:38:07.279Z,100.87
2022-08-29T16:40:42.010Z,96.23
2022-08-29T16:43:13.723Z,100.90
2022-08-29T16:45:45.557Z,102.27
2022-08-29T16:48:17.745Z,98.80
2022-08-29T16:50:49.697Z,102.13
2022-08-29T16:53:24.220Z,101.97
2022-08-29T16:55:55.801Z,100.90
2022-08-29T16:58:46.344Z,101.20
2022-08-29T17:01:18.269Z,98.97
2022-08-29T17:03:49.976Z,97.70
2022-08-29T17:06:22.205Z,99.77
2022-08-29T17:08:53.912Z,98.17
2022-08-29T17:11:26.266Z,96.70
2022-08-29T17:13:57.941Z,101.80
2022-08-29T17:16:29.860Z,95.67
2022-08-29T17:19:01.541Z,101.47
2022-08-29T17:21:34.359Z,98.60
2022-08-29T17:24:10.090Z,101.77
2022-08-29T17:26:45.239Z,112.30
2022-08-29T17:29:17.260Z,100.80
2022-08-29T17:31:49.015Z,101.50
2022-08-29T17:34:20.672Z,100.37
2022-08-29T17:36:52.243Z,99.60
2022-08-29T17:39:23.936Z,99.87
2022-08-29T17:41:55.512Z,97.67
2022-08-29T17:44:27.697Z,98.83
2022-08-29T17:46:59.313Z,94.20
2022-08-29T17:49:31.143Z,98.03
2022-08-29T17:52:03.031Z,97.37
2022-08-29T17:54:34.990Z,97.87
2022-08-29T17:57:06.710Z,93.07
2022-08-29T17:59:38.438Z,98.07
2022-08-29T18:02:13.345Z,92.20
2022-08-29T18:04:45.081Z,87.73
2022-08-29T18:07:17.262Z,95.73
2022-08-29T18:09:49.305Z,99.10
2022-08-29T18:12:20.940Z,89.90
2022-08-29T18:14:54.387Z,94.93
2022-08-29T18:17:26.039Z,90.05
2022-08-29T18:20:00.320Z,96.90
2022-08-29T18:25:06.808Z,89.67
2022-08-29T18:27:43.673Z,88.20
2022-08-29T18:30:15.638Z,89.80
2022-08-29T18:32:47.316Z,89.40
2022-08-29T18:35:18.989Z,85.73
2022-08-29T18:37:50.569Z,84.00
2022-08-29T18:40:22.475Z,86.03
2022-08-29T18:42:54.143Z,80.37
2022-08-29T18:45:25.803Z,83.23
2022-08-29T18:47:57.482Z,82.93
2022-08-29T18:50:36.776Z,82.30
2022-08-29T18:53:13.333Z,83.77
2022-08-29T18:55:52.341Z,83.03
2022-08-29T18:58:27.855Z,80.70
2022-08-29T19:01:09.789Z,88.97
2022-08-29T19:03:41.738Z,84.63
2022-08-29T19:06:14.010Z,85.37
2022-08-29T19:08:46.304Z,86.90
2022-08-29T19:11:19.623Z,88.37
2022-08-29T19:13:52.484Z,82.63
2022-08-29T19:16:26.836Z,83.07
2022-08-29T19:19:02.830Z,83.03
2022-08-29T19:21:37.093Z,86.37
2022-08-29T19:24:08.994Z,86.82
2022-08-29T19:26:40.772Z,83.47
2022-08-29T19:29:16.907Z,84.63
2022-08-29T19:31:52.688Z,80.43
2022-08-29T19:34:26.548Z,82.77
2022-08-29T19:37:00.237Z,83.17
2022-08-29T19:39:32.774Z,84.07
2022-08-29T19:42:06.871Z,80.57
2022-08-29T19:44:47.987Z,78.43
2022-08-29T19:47:19.745Z,84.30
2022-08-29T19:49:52.360Z,83.30
2022-08-29T19:52:24.465Z,80.20
2022-08-29T19:54:58.445Z,81.97
2022-08-29T19:57:35.010Z,85.13
2022-08-29T20:00:13.935Z,80.17
2022-08-29T20:02:47.873Z,86.47
2022-08-29T20:05:22.049Z,79.30
2022-08-29T20:07:54.064Z,81.60
2022-08-29T20:10:27.812Z,83.47
2022-08-29T20:12:59.537Z,78.38
2022-08-29T20:15:31.225Z,78.57
2022-08-29T20:18:05.961Z,82.53
2022-08-29T20:20:40.681Z,78.65
2022-08-29T20:23:13.207Z,79.43
2022-08-29T20:25:47.919Z,81.60
2022-08-29T20:28:19.616Z,82.60
2022-08-29T20:30:51.279Z,84.47
2022-08-29T20:33:23.561Z,87.53
2022-08-29T20:36:13.749Z,80.80
2022-08-29T20:38:46.397Z,78.67
2022-08-29T20:41:22.106Z,79.73
2022-08-29T20:43:53.836Z,77.97
2022-08-29T20:46:28.459Z,79.18
2022-08-29T20:49:00.826Z,83.87
2022-08-29T20:51:37.480Z,74.20
2022-08-29T20:54:09.132Z,77.97
2022-08-29T20:56:40.910Z,78.03
2022-08-29T20:59:12.853Z,80.77
2022-08-29T21:01:47.330Z,75.23
2022-08-29T21:04:37.756Z,76.07
2022-08-29T21:07:12.204Z,76.23
2022-08-29T21:09:48.371Z,75.23
2022-08-29T21:12:21.048Z,76.30
2022-08-29T21:14:55.686Z,75.03
2022-08-29T21:17:27.292Z,79.33
2022-08-29T21:19:58.927Z,67.47
2022-08-29T21:22:33.368Z,70.23
2022-08-29T21:27:36.742Z,72.07
2022-08-29T21:30:10.957Z,73.43
2022-08-29T21:32:42.587Z,73.68
2022-08-29T21:35:15.865Z,72.97
2022-08-29T21:37:48.789Z,75.93
2022-08-29T21:40:25.836Z,73.03
2022-08-29T21:42:59.660Z,76.97
2022-08-29T21:45:34.216Z,76.25
2022-08-29T21:50:40.193Z,73.53
2022-08-29T21:55:47.548Z,75.17
2022-08-29T22:00:53.124Z,76.60
2022-08-29T22:03:24.973Z,71.30
2022-08-29T22:05:57.157Z,75.50
2022-08-29T22:08:28.725Z,72.07
2022-08-29T22:11:00.546Z,72.53
2022-08-29T22:13:32.136Z,72.07
2022-08-29T22:16:22.260Z,78.80
2022-08-29T22:18:55.345Z,69.63
2022-08-29T22:21:28.568Z,75.13
2022-08-29T22:24:01.545Z,71.13
2022-08-29T22:26:34.602Z,73.17
2022-08-29T22:29:12.086Z,72.67
2022-08-29T22:31:44.885Z,74.07
2022-08-29T22:34:17.912Z,68.20
2022-08-29T22:36:49.582Z,73.67
2022-08-29T22:39:21.200Z,70.40
2022-08-29T22:41:52.897Z,74.20
2022-08-29T22:47:17.685Z,67.23
2022-08-29T22:49:49.229Z,70.20
2022-08-29T22:52:21.264Z,66.80
2022-08-29T22:54:55.903Z,68.00
2022-08-29T22:57:27.589Z,70.33
2022-08-29T22:59:59.904Z,74.57
2022-08-29T23:02:31.626Z,69.20
2022-08-29T23:05:09.580Z,65.90
2022-08-29T23:07:41.685Z,73.27
2022-08-29T23:10:14.810Z,71.30
2022-08-29T23:12:50.657Z,67.13
2022-08-29T23:15:22.310Z,70.03
2022-08-29T23:17:53.972Z,70.40
2022-08-29T23:20:29.094Z,67.97
2022-08-29T23:23:01.735Z,66.37
2022-08-29T23:25:33.836Z,67.37
2022-08-29T23:28:05.578Z,67.17
2022-08-29T23:30:37.214Z,70.57
2022-08-29T23:33:08.992Z,69.53
2022-08-29T23:35:40.924Z,66.60
2022-08-29T23:38:12.523Z,67.43
2022-08-29T23:40:46.593Z,68.85
2022-08-29T23:43:21.044Z,64.97
2022-08-29T23:45:55.579Z,65.37
2022-08-29T23:48:29.969Z,65.65
2022-08-29T23:51:07.235Z,66.83
2022-08-29T23:53:38.924Z,65.00
2022-08-29T23:56:14.717Z,68.43
2022-08-29T23:58:46.791Z,65.87
